Time;durP1;ratioP1;P1;durP2;ratioP2;P2;SDS_P1;SDS_P2;PMS_P1;PMS_P2;Temp;Humidity;BMP_temperature;BMP_pressure;BME280_temperature;BME280_humidity;BME280_pressure;Samples;Min_cycle;Max_cycle;Signal;HPM_P1;HPM_P2
2023/12/07 05:01:02;;;;;;;35.78;14.23;;;2.00;99.90;;;;;;5612480;23;20253;-72
2023/12/07 05:03:29;;;;;;;33.50;15.38;;;2.00;99.90;;;;;;4947855;29;20213;-74
2023/12/07 05:05:56;;;;;;;38.25;14.40;;;2.00;99.90;;;;;;4948706;28;20635;-74
2023/12/07 05:08:22;;;;;;;36.88;15.00;;;2.00;99.90;;;;;;4946248;29;20209;-73
2023/12/07 05:10:49;;;;;;;31.98;16.50;;;2.00;99.90;;;;;;4936706;29;20226;-73
2023/12/07 05:13:15;;;;;;;25.80;15.27;;;2.00;99.90;;;;;;4929710;29;20346;-73
2023/12/07 05:15:42;;;;;;;35.75;16.20;;;2.00;99.90;;;;;;4931614;29;20236;-73
2023/12/07 05:18:10;;;;;;;28.98;16.58;;;2.00;99.90;;;;;;4924180;29;20215;-73
2023/12/07 05:20:39;;;;;;;46.53;18.48;;;2.00;99.90;;;;;;4931718;29;20234;-73
2023/12/07 05:23:05;;;;;;;35.05;15.13;;;2.00;99.90;;;;;;4927687;29;20217;-73
2023/12/07 05:25:33;;;;;;;42.58;16.00;;;2.00;99.90;;;;;;4932410;29;20592;-73
2023/12/07 05:28:00;;;;;;;29.40;12.95;;;2.00;99.90;;;;;;4931401;29;20206;-73
2023/12/07 05:30:27;;;;;;;44.70;16.40;;;2.00;99.90;;;;;;4932185;29;20688;-73
2023/12/07 05:32:54;;;;;;;25.42;13.13;;;2.00;99.90;;;;;;4928151;29;20321;-73
2023/12/07 05:35:23;;;;;;;33.92;15.63;;;2.00;99.90;;;;;;4931487;29;20210;-73
2023/12/07 05:37:50;;;;;;;35.67;16.85;;;2.00;99.90;;;;;;4925181;29;20336;-73
2023/12/07 05:40:16;;;;;;;32.15;15.68;;;2.00;99.90;;;;;;4932337;29;20574;-73
2023/12/07 05:42:43;;;;;;;35.28;16.92;;;2.00;99.90;;;;;;4934478;29;20214;-74
2023/12/07 05:45:10;;;;;;;34.08;17.00;;;2.10;99.90;;;;;;4933269;29;20217;-74
2023/12/07 05:47:37;;;;;;;35.83;14.70;;;2.10;99.90;;;;;;4935078;29;20305;-74
2023/12/07 05:50:04;;;;;;;31.77;14.65;;;2.10;99.90;;;;;;4935912;29;20233;-73
2023/12/07 05:52:32;;;;;;;33.63;14.93;;;2.10;99.90;;;;;;4933055;29;20229;-73
2023/12/07 05:54:59;;;;;;;35.03;16.10;;;2.10;99.90;;;;;;4930593;29;20210;-73
2023/12/07 05:57:25;;;;;;;41.83;15.90;;;2.10;99.90;;;;;;4932106;29;20226;-73
2023/12/07 05:59:52;;;;;;;47.97;24.52;;;2.10;99.90;;;;;;4935482;29;20222;-73
2023/12/07 06:02:19;;;;;;;28.50;17.08;;;2.10;99.90;;;;;;4935339;29;20238;-73
2023/12/07 06:04:45;;;;;;;45.85;20.77;;;2.10;99.90;;;;;;4935047;29;20226;-73
2023/12/07 06:07:12;;;;;;;68.75;30.52;;;2.10;99.90;;;;;;4934350;29;20217;-74
2023/12/07 06:09:41;;;;;;;63.17;29.88;;;2.10;99.90;;;;;;4935446;29;20210;-73
2023/12/07 06:12:08;;;;;;;123.35;56.35;;;2.10;99.90;;;;;;4935426;29;20257;-74
2023/12/07 06:14:35;;;;;;;91.60;47.08;;;2.10;99.90;;;;;;4931125;29;20233;-74
2023/12/07 06:17:02;;;;;;;60.65;28.70;;;2.10;99.90;;;;;;4933547;29;20237;-74
2023/12/07 06:19:28;;;;;;;184.60;73.45;;;2.10;99.90;;;;;;4932621;29;20921;-73
2023/12/07 06:21:55;;;;;;;115.20;45.78;;;2.10;99.90;;;;;;4931593;29;20237;-73
2023/12/07 06:24:24;;;;;;;56.03;25.55;;;2.10;99.90;;;;;;4932503;29;20237;-73
2023/12/07 06:26:52;;;;;;;39.80;18.23;;;2.10;99.90;;;;;;4930576;29;20229;-73
2023/12/07 06:29:19;;;;;;;36.80;18.67;;;2.10;99.90;;;;;;4932054;29;20238;-73
2023/12/07 06:31:46;;;;;;;57.25;20.90;;;2.10;99.90;;;;;;4931477;29;20237;-73
2023/12/07 06:34:13;;;;;;;48.35;24.27;;;2.10;99.90;;;;;;4932976;29;20214;-73
2023/12/07 06:36:39;;;;;;;35.47;15.30;;;2.10;99.90;;;;;;4931038;29;20245;-73
2023/12/07 06:39:06;;;;;;;43.28;20.42;;;2.20;99.90;;;;;;4932474;29;20218;-72
2023/12/07 06:41:33;;;;;;;37.30;17.33;;;2.10;99.90;;;;;;4933963;29;20325;-73
2023/12/07 06:44:01;;;;;;;38.63;16.48;;;2.10;99.90;;;;;;4934247;29;20422;-73
2023/12/07 06:46:27;;;;;;;73.30;34.67;;;2.20;99.90;;;;;;4933630;29;20209;-73
2023/12/07 06:48:54;;;;;;;45.97;22.80;;;2.20;99.90;;;;;;4928473;29;20213;-72
2023/12/07 06:51:21;;;;;;;29.10;15.68;;;2.20;99.90;;;;;;4933710;29;20318;-72
2023/12/07 06:53:47;;;;;;;30.75;16.10;;;2.20;99.90;;;;;;4939312;29;20223;-72
2023/12/07 06:56:15;;;;;;;28.92;15.02;;;2.20;99.90;;;;;;4936346;29;20572;-71
2023/12/07 06:58:42;;;;;;;52.72;25.17;;;2.20;99.90;;;;;;4935374;29;20261;-72
2023/12/07 07:01:10;;;;;;;32.13;16.38;;;2.20;99.90;;;;;;4932690;29;20241;-72
2023/12/07 07:03:36;;;;;;;28.10;15.70;;;2.20;99.90;;;;;;4937373;29;20692;-72
2023/12/07 07:06:03;;;;;;;31.15;16.52;;;2.20;99.90;;;;;;4936982;29;20281;-72
2023/12/07 07:08:30;;;;;;;26.40;15.95;;;2.20;99.90;;;;;;4936865;29;20210;-72
2023/12/07 07:10:57;;;;;;;31.65;16.17;;;2.20;99.90;;;;;;4936177;29;20233;-72
2023/12/07 07:13:24;;;;;;;40.20;18.38;;;2.20;99.90;;;;;;4933437;29;20213;-71
2023/12/07 07:15:51;;;;;;;40.33;15.57;;;2.20;99.90;;;;;;4933848;29;20292;-72
2023/12/07 07:18:20;;;;;;;30.45;15.55;;;2.20;99.90;;;;;;4934298;29;20248;-72
2023/12/07 07:20:47;;;;;;;39.72;17.60;;;2.20;99.90;;;;;;4932516;29;20300;-72
2023/12/07 07:23:14;;;;;;;28.70;16.30;;;2.20;99.90;;;;;;4932911;29;20206;-72
2023/12/07 07:25:40;;;;;;;28.58;15.00;;;2.20;99.90;;;;;;4930177;29;20661;-72
2023/12/07 07:28:07;;;;;;;35.28;16.33;;;2.20;99.90;;;;;;4931936;29;20234;-72
2023/12/07 07:30:34;;;;;;;33.40;15.00;;;2.20;99.90;;;;;;4931715;29;20766;-72
2023/12/07 07:33:01;;;;;;;38.00;17.35;;;2.20;99.90;;;;;;4931139;29;20210;-71
2023/12/07 07:35:29;;;;;;;32.30;16.92;;;2.20;99.90;;;;;;4932590;29;20237;-72
2023/12/07 07:37:55;;;;;;;34.55;16.92;;;2.20;99.90;;;;;;4933592;29;20225;-72
2023/12/07 07:40:22;;;;;;;25.70;14.98;;;2.20;99.90;;;;;;4933201;29;20206;-72
2023/12/07 07:42:49;;;;;;;31.95;16.50;;;2.30;99.90;;;;;;4932790;29;20233;-72
2023/12/07 07:45:16;;;;;;;31.17;13.38;;;2.30;99.90;;;;;;4931780;29;20212;-72
2023/12/07 07:47:43;;;;;;;35.03;19.65;;;2.30;99.90;;;;;;4930256;29;20541;-72
2023/12/07 07:50:11;;;;;;;28.40;14.55;;;2.30;99.90;;;;;;4930302;29;20560;-73
2023/12/07 07:52:40;;;;;;;20.83;13.85;;;2.30;99.90;;;;;;4929384;29;20598;-72
2023/12/07 07:55:07;;;;;;;29.75;14.38;;;2.30;99.90;;;;;;4932699;29;20293;-73
2023/12/07 07:57:34;;;;;;;36.45;15.10;;;2.30;99.90;;;;;;4931932;29;20233;-72
2023/12/07 08:00:00;;;;;;;38.22;15.68;;;2.30;99.90;;;;;;4931440;29;20206;-72
2023/12/07 08:02:27;;;;;;;26.63;14.88;;;2.30;99.90;;;;;;4929072;29;20248;-72
2023/12/07 08:04:54;;;;;;;33.08;15.70;;;2.30;99.90;;;;;;4929231;29;20220;-72
2023/12/07 08:07:20;;;;;;;31.17;15.10;;;2.30;99.90;;;;;;4931972;29;20210;-72
2023/12/07 08:09:48;;;;;;;23.85;16.15;;;2.30;99.90;;;;;;4928120;29;21873;-73
2023/12/07 08:12:15;;;;;;;34.25;15.68;;;2.30;99.90;;;;;;4928182;29;20244;-72
2023/12/07 08:14:43;;;;;;;32.20;14.90;;;2.40;99.90;;;;;;4926437;29;20218;-72
2023/12/07 08:17:10;;;;;;;27.13;14.48;;;2.40;99.90;;;;;;4930089;29;20225;-72
2023/12/07 08:19:37;;;;;;;30.45;14.98;;;2.40;99.90;;;;;;4933425;29;20218;-72
2023/12/07 08:22:04;;;;;;;28.73;14.73;;;2.40;99.90;;;;;;4932378;29;20321;-72
2023/12/07 08:24:31;;;;;;;35.70;17.60;;;2.40;99.90;;;;;;4934635;29;20203;-72
2023/12/07 08:26:59;;;;;;;25.30;14.43;;;2.40;99.90;;;;;;4936368;29;20206;-72
2023/12/07 08:29:25;;;;;;;34.72;16.35;;;2.40;99.90;;;;;;4934691;29;20210;-72
2023/12/07 08:31:52;;;;;;;27.92;15.45;;;2.40;99.90;;;;;;4933789;29;20237;-72
2023/12/07 08:34:19;;;;;;;35.15;17.92;;;2.50;99.90;;;;;;4934807;29;20209;-72
2023/12/07 08:36:46;;;;;;;24.40;13.15;;;2.50;99.90;;;;;;4930224;29;20760;-72
2023/12/07 08:39:12;;;;;;;37.95;20.15;;;2.50;99.90;;;;;;4935952;29;20293;-72
2023/12/07 08:41:39;;;;;;;37.92;17.85;;;2.60;99.90;;;;;;4933714;29;20237;-72
2023/12/07 08:44:07;;;;;;;39.10;18.80;;;2.60;99.90;;;;;;4937056;29;20215;-72
2023/12/07 08:46:34;;;;;;;34.70;16.42;;;2.60;99.90;;;;;;4937740;29;20206;-72
2023/12/07 08:49:01;;;;;;;28.65;15.98;;;2.60;99.90;;;;;;4935934;29;20207;-73
2023/12/07 08:51:28;;;;;;;29.15;15.82;;;2.70;99.90;;;;;;4934863;29;20264;-71
2023/12/07 08:53:55;;;;;;;26.67;14.35;;;2.70;99.90;;;;;;4928610;29;20266;-71
2023/12/07 08:56:21;;;;;;;28.63;17.92;;;2.70;99.90;;;;;;4931555;29;20217;-72
2023/12/07 08:58:48;;;;;;;31.88;17.90;;;2.70;99.90;;;;;;4936818;29;20710;-72
2023/12/07 09:01:16;;;;;;;28.58;15.88;;;2.70;99.90;;;;;;4929185;29;20237;-74
2023/12/07 09:03:43;;;;;;;42.88;19.20;;;2.70;99.90;;;;;;4929161;29;20677;-73
2023/12/07 09:06:10;;;;;;;36.08;16.92;;;2.70;99.90;;;;;;4931079;29;20218;-73
2023/12/07 09:08:36;;;;;;;30.00;17.38;;;2.80;99.90;;;;;;4929570;29;20206;-73
2023/12/07 09:11:03;;;;;;;32.50;17.42;;;2.70;99.90;;;;;;4931030;29;20682;-71
2023/12/07 09:13:31;;;;;;;31.48;15.10;;;2.80;99.90;;;;;;4936419;29;20219;-72
2023/12/07 09:15:57;;;;;;;32.25;14.38;;;2.80;99.90;;;;;;4934929;29;20265;-73
2023/12/07 09:18:26;;;;;;;26.88;15.32;;;2.80;99.90;;;;;;4934007;29;20226;-73
2023/12/07 09:20:53;;;;;;;32.38;15.40;;;2.80;99.90;;;;;;4932022;29;20345;-73
2023/12/07 09:23:19;;;;;;;23.70;14.00;;;2.90;99.90;;;;;;4935583;29;20213;-73
2023/12/07 09:25:47;;;;;;;33.85;15.55;;;2.90;99.90;;;;;;4928953;29;20222;-74
2023/12/07 09:28:13;;;;;;;35.40;17.70;;;2.90;99.90;;;;;;4932822;29;20209;-73
2023/12/07 09:30:40;;;;;;;32.35;17.10;;;3.00;99.90;;;;;;4934224;29;20728;-73
2023/12/07 09:33:07;;;;;;;32.70;15.85;;;3.00;99.90;;;;;;4932872;29;20213;-73
2023/12/07 09:35:35;;;;;;;71.40;34.15;;;3.00;99.90;;;;;;4934156;29;20218;-73
2023/12/07 09:38:03;;;;;;;45.80;22.48;;;3.00;99.90;;;;;;4927068;29;20230;-73
2023/12/07 09:40:31;;;;;;;38.28;21.98;;;3.00;99.90;;;;;;4932924;29;20283;-73
2023/12/07 09:42:57;;;;;;;33.67;17.55;;;3.00;99.90;;;;;;4928186;29;20222;-71
2023/12/07 09:45:24;;;;;;;24.92;14.88;;;3.10;99.90;;;;;;4930020;29;20215;-71
2023/12/07 09:47:52;;;;;;;40.08;17.88;;;3.10;99.90;;;;;;4931838;29;20202;-72
2023/12/07 09:50:21;;;;;;;29.58;15.68;;;3.10;99.90;;;;;;4929807;29;20225;-73
2023/12/07 09:52:50;;;;;;;27.15;13.63;;;3.10;99.90;;;;;;4931423;29;20606;-73
2023/12/07 09:55:18;;;;;;;28.02;16.40;;;3.20;99.90;;;;;;4932273;29;20748;-73
2023/12/07 09:57:45;;;;;;;47.97;29.38;;;3.20;99.90;;;;;;4933378;29;20600;-73
2023/12/07 10:00:14;;;;;;;33.28;15.30;;;3.20;99.90;;;;;;4933732;29;20584;-72
2023/12/07 10:02:42;;;;;;;25.98;14.23;;;3.20;99.90;;;;;;4933671;29;20211;-71
2023/12/07 10:05:10;;;;;;;35.35;18.92;;;3.20;99.90;;;;;;4927834;29;20585;-71
2023/12/07 10:07:40;;;;;;;40.58;20.17;;;3.20;99.90;;;;;;4940046;29;20222;-71
2023/12/07 10:10:11;;;;;;;43.15;19.98;;;3.20;99.90;;;;;;4947748;29;20213;-71
2023/12/07 10:12:46;;;;;;;33.83;18.90;;;3.30;99.90;;;;;;4939993;29;20205;-71
2023/12/07 10:15:14;;;;;;;36.03;18.77;;;3.30;99.90;;;;;;4934053;29;20281;-71
2023/12/07 10:17:47;;;;;;;25.63;14.75;;;3.30;99.90;;;;;;4926822;29;20324;-71
2023/12/07 10:20:15;;;;;;;38.97;19.42;;;3.40;99.90;;;;;;4934285;29;20632;-70
2023/12/07 10:22:42;;;;;;;31.63;16.40;;;3.40;99.90;;;;;;4935235;29;20227;-70
2023/12/07 10:25:11;;;;;;;29.65;16.35;;;3.40;99.90;;;;;;4940540;29;20223;-70
2023/12/07 10:27:38;;;;;;;34.90;17.98;;;3.40;99.90;;;;;;4929249;29;20208;-71
2023/12/07 10:30:07;;;;;;;26.83;15.48;;;3.40;99.90;;;;;;4943302;29;20666;-71
2023/12/07 10:32:37;;;;;;;27.33;15.50;;;3.40;99.90;;;;;;4932852;29;20236;-71
2023/12/07 10:35:05;;;;;;;32.28;17.25;;;3.50;99.90;;;;;;4936463;29;20209;-71
2023/12/07 10:37:32;;;;;;;26.92;16.15;;;3.50;99.90;;;;;;4924205;29;20226;-71
2023/12/07 10:39:58;;;;;;;28.80;16.58;;;3.50;99.90;;;;;;4931529;29;20208;-71
2023/12/07 10:42:30;;;;;;;33.20;17.40;;;3.50;99.90;;;;;;4934574;29;20241;-71
2023/12/07 10:45:01;;;;;;;25.88;16.30;;;3.60;99.90;;;;;;4926963;29;20242;-71
2023/12/07 10:47:29;;;;;;;24.40;14.32;;;3.50;99.90;;;;;;4931569;29;20375;-70
2023/12/07 10:49:59;;;;;;;30.95;16.05;;;3.60;99.90;;;;;;4930957;29;20203;-71
2023/12/07 10:52:27;;;;;;;26.20;16.38;;;3.60;99.90;;;;;;4932630;29;21607;-70
2023/12/07 10:55:01;;;;;;;24.67;15.07;;;3.60;99.90;;;;;;4933724;29;20222;-71
2023/12/07 10:57:31;;;;;;;29.15;16.52;;;3.60;99.90;;;;;;4933059;29;20723;-71
2023/12/07 11:00:00;;;;;;;21.85;14.48;;;3.60;99.90;;;;;;4932919;29;20222;-72
2023/12/07 11:02:28;;;;;;;23.50;15.38;;;3.60;99.90;;;;;;4934478;29;20243;-72
2023/12/07 11:04:58;;;;;;;31.88;17.10;;;3.60;99.90;;;;;;4933978;29;20210;-72
2023/12/07 11:07:28;;;;;;;29.23;15.48;;;3.60;99.90;;;;;;4926396;29;20291;-71
2023/12/07 11:10:08;;;;;;;27.17;16.02;;;3.60;99.90;;;;;;4937586;29;20656;-71
2023/12/07 11:12:45;;;;;;;32.92;15.15;;;3.60;99.90;;;;;;4933240;29;20614;-71
2023/12/07 11:15:12;;;;;;;24.40;12.88;;;3.70;99.90;;;;;;4932901;29;20278;-71
2023/12/07 11:17:51;;;;;;;23.25;15.43;;;3.70;99.90;;;;;;4935993;29;20265;-71
2023/12/07 11:20:20;;;;;;;30.15;14.70;;;3.70;99.90;;;;;;4936508;29;20226;-71
2023/12/07 11:22:48;;;;;;;26.25;15.32;;;3.60;99.90;;;;;;4940337;29;20213;-71
2023/12/07 11:25:16;;;;;;;24.05;13.77;;;3.70;99.90;;;;;;4936047;29;20220;-72
2023/12/07 11:27:49;;;;;;;27.13;14.68;;;3.70;99.90;;;;;;4939118;29;20208;-71
2023/12/07 11:30:16;;;;;;;27.60;15.45;;;3.70;99.90;;;;;;4936298;29;20210;-71
2023/12/07 11:32:45;;;;;;;28.20;14.27;;;3.70;99.90;;;;;;4933547;29;20218;-71
2023/12/07 11:35:15;;;;;;;29.90;15.43;;;3.70;99.90;;;;;;4933204;29;20215;-71
2023/12/07 11:38:01;;;;;;;27.05;15.75;;;3.80;99.90;;;;;;4926643;29;20218;-71
2023/12/07 11:40:28;;;;;;;23.00;14.30;;;3.80;99.90;;;;;;4934766;28;20207;-71
2023/12/07 11:42:57;;;;;;;25.13;13.32;;;3.70;99.90;;;;;;4938872;29;20307;-71
2023/12/07 11:45:41;;;;;;;28.30;15.98;;;3.70;99.90;;;;;;4933385;29;20220;-71
2023/12/07 11:48:12;;;;;;;28.38;16.38;;;3.70;99.90;;;;;;4933279;29;20278;-71
2023/12/07 11:50:55;;;;;;;24.67;12.98;;;3.70;99.90;;;;;;4919925;29;20224;-71
2023/12/07 11:53:23;;;;;;;27.58;12.52;;;3.70;99.90;;;;;;4936012;29;20196;-72
2023/12/07 11:55:50;;;;;;;19.52;13.38;;;3.80;99.90;;;;;;4942186;29;20244;-71
2023/12/07 11:58:18;;;;;;;23.65;14.90;;;3.80;99.90;;;;;;4933277;29;20282;-71
2023/12/07 12:00:46;;;;;;;28.67;15.40;;;3.80;99.90;;;;;;4933665;28;20252;-72
2023/12/07 12:03:13;;;;;;;29.23;17.63;;;3.80;99.90;;;;;;4933875;29;20274;-72
2023/12/07 12:05:40;;;;;;;24.75;15.00;;;3.80;99.90;;;;;;4936371;29;20212;-72
2023/12/07 12:08:07;;;;;;;41.85;22.83;;;3.80;99.90;;;;;;4946553;29;20252;-72
2023/12/07 12:10:34;;;;;;;26.05;15.90;;;3.80;99.90;;;;;;4936529;29;20228;-72
2023/12/07 12:13:03;;;;;;;24.52;15.80;;;3.80;99.90;;;;;;4933195;29;20218;-71
2023/12/07 12:15:31;;;;;;;28.08;16.20;;;3.80;99.90;;;;;;4937723;29;20228;-72
2023/12/07 12:17:58;;;;;;;19.35;14.43;;;3.80;99.90;;;;;;4932923;29;20232;-71
2023/12/07 12:20:25;;;;;;;29.77;18.48;;;3.80;99.90;;;;;;4933576;29;20217;-72
2023/12/07 12:22:53;;;;;;;24.60;15.57;;;3.80;99.90;;;;;;4936286;29;20215;-72
2023/12/07 12:25:22;;;;;;;29.65;22.00;;;3.80;99.90;;;;;;4933176;29;20245;-72
2023/12/07 12:27:50;;;;;;;26.35;16.77;;;3.80;99.90;;;;;;4933247;29;20239;-72
2023/12/07 12:30:18;;;;;;;18.60;12.20;;;3.80;99.90;;;;;;4932873;29;20211;-72
2023/12/07 12:32:47;;;;;;;23.05;12.20;;;3.80;99.90;;;;;;4939744;29;20205;-72
2023/12/07 12:35:15;;;;;;;22.25;13.70;;;3.80;99.90;;;;;;4932673;29;20220;-71
2023/12/07 12:37:43;;;;;;;20.88;12.85;;;3.80;99.90;;;;;;4933111;29;20222;-71
2023/12/07 12:40:11;;;;;;;27.02;14.60;;;3.80;99.90;;;;;;4933377;29;20235;-71
2023/12/07 12:42:38;;;;;;;19.50;13.30;;;3.80;99.90;;;;;;4936349;29;20217;-71
2023/12/07 12:45:06;;;;;;;25.42;14.40;;;3.80;99.90;;;;;;4932854;29;20216;-71
2023/12/07 12:47:34;;;;;;;22.20;12.75;;;3.80;99.90;;;;;;4931580;29;20211;-71
2023/12/07 12:50:04;;;;;;;19.52;12.68;;;3.80;99.90;;;;;;4922757;29;20216;-70
2023/12/07 12:52:31;;;;;;;20.67;11.25;;;3.80;99.90;;;;;;4936219;29;20318;-71
2023/12/07 12:54:58;;;;;;;23.30;13.98;;;3.80;99.90;;;;;;4932467;29;20203;-71
2023/12/07 12:57:25;;;;;;;21.42;13.00;;;3.80;99.90;;;;;;4932283;29;20223;-71
2023/12/07 12:59:52;;;;;;;18.58;12.10;;;3.80;99.90;;;;;;4932603;29;20612;-71
2023/12/07 13:02:20;;;;;;;21.15;12.02;;;3.80;99.90;;;;;;4932318;29;20773;-71
2023/12/07 13:04:46;;;;;;;20.63;11.63;;;3.80;99.90;;;;;;4932466;29;20299;-71
2023/12/07 13:07:15;;;;;;;21.30;12.35;;;3.80;99.90;;;;;;4932287;29;20519;-69
2023/12/07 13:09:43;;;;;;;20.27;12.77;;;3.80;99.90;;;;;;4924568;29;20275;-69
2023/12/07 13:12:10;;;;;;;20.30;11.52;;;3.80;99.90;;;;;;4931525;29;20709;-69
2023/12/07 13:14:37;;;;;;;24.73;15.80;;;3.80;99.90;;;;;;4938705;29;20702;-69
2023/12/07 13:17:05;;;;;;;23.83;12.43;;;3.80;99.90;;;;;;4932042;29;20308;-69
2023/12/07 13:19:31;;;;;;;22.27;14.13;;;3.70;99.90;;;;;;4928628;29;20331;-69
2023/12/07 13:21:58;;;;;;;30.75;16.67;;;3.70;99.90;;;;;;4923249;29;20249;-69
2023/12/07 13:24:26;;;;;;;19.58;12.02;;;3.70;99.90;;;;;;4931869;29;20208;-69
2023/12/07 13:26:53;;;;;;;23.17;13.23;;;3.60;99.90;;;;;;4925708;29;20234;-69
2023/12/07 13:29:19;;;;;;;19.45;11.48;;;3.60;99.90;;;;;;4928789;29;20227;-69
2023/12/07 13:31:46;;;;;;;24.52;12.68;;;3.60;99.90;;;;;;4930425;29;20237;-69
2023/12/07 13:34:14;;;;;;;27.67;14.63;;;3.50;99.90;;;;;;4931411;29;20313;-71
2023/12/07 13:36:40;;;;;;;21.05;14.95;;;3.50;99.90;;;;;;4934292;29;20288;-71
2023/12/07 13:39:08;;;;;;;18.75;12.60;;;3.50;99.90;;;;;;4942460;29;20221;-71
2023/12/07 13:41:37;;;;;;;24.80;16.63;;;3.40;99.90;;;;;;4932929;29;20267;-71
2023/12/07 13:44:04;;;;;;;26.00;14.43;;;3.40;99.90;;;;;;4935145;29;20210;-71
2023/12/07 13:46:31;;;;;;;19.83;12.40;;;3.40;99.90;;;;;;4936265;29;20231;-71
2023/12/07 13:48:58;;;;;;;20.67;13.68;;;3.40;99.90;;;;;;4928939;29;20206;-71
2023/12/07 13:51:24;;;;;;;27.38;13.25;;;3.40;99.90;;;;;;4936678;29;20784;-71
2023/12/07 13:53:55;;;;;;;19.40;13.45;;;3.40;99.90;;;;;;4929620;29;20534;-71
2023/12/07 13:56:23;;;;;;;24.75;13.20;;;3.40;99.90;;;;;;4948880;29;20296;-71
2023/12/07 13:58:51;;;;;;;24.35;12.25;;;3.40;99.90;;;;;;4954036;29;20309;-71
2023/12/07 14:01:18;;;;;;;18.95;10.77;;;3.40;99.90;;;;;;4975947;28;20252;-72
2023/12/07 14:03:44;;;;;;;17.92;11.77;;;3.30;99.90;;;;;;4962160;29;20212;-71
2023/12/07 14:06:23;;;;;;;25.75;13.32;;;3.30;99.90;;;;;;4959939;29;20205;-72
2023/12/07 14:08:50;;;;;;;20.67;13.35;;;3.30;99.90;;;;;;4938775;29;20613;-72
2023/12/07 14:11:17;;;;;;;24.65;12.65;;;3.30;99.90;;;;;;4936875;29;20230;-72
2023/12/07 14:13:46;;;;;;;21.85;13.80;;;3.30;99.90;;;;;;4931570;29;20701;-72
2023/12/07 14:16:14;;;;;;;27.95;12.65;;;3.20;99.90;;;;;;4931218;29;20265;-71
2023/12/07 14:18:42;;;;;;;23.25;13.35;;;3.20;99.90;;;;;;4944825;29;20239;-72
2023/12/07 14:21:09;;;;;;;21.83;14.13;;;3.20;99.90;;;;;;4932874;29;20229;-67
2023/12/07 14:23:35;;;;;;;21.45;11.90;;;3.20;99.90;;;;;;4926344;29;20259;-67
2023/12/07 14:26:02;;;;;;;22.90;12.43;;;3.30;99.90;;;;;;4935456;29;20209;-72
2023/12/07 14:28:30;;;;;;;21.15;10.88;;;3.30;99.90;;;;;;4930332;29;20198;-71
2023/12/07 14:30:57;;;;;;;19.92;11.75;;;3.20;99.90;;;;;;4940737;29;20404;-72
2023/12/07 14:33:25;;;;;;;29.67;13.60;;;3.20;99.90;;;;;;4932898;29;20214;-71
2023/12/07 14:35:52;;;;;;;23.02;13.15;;;3.20;99.90;;;;;;4930339;29;20549;-71
2023/12/07 14:38:19;;;;;;;22.67;12.38;;;3.10;99.90;;;;;;4934631;29;20210;-71
2023/12/07 14:40:46;;;;;;;18.70;10.40;;;3.10;99.90;;;;;;4934472;29;20244;-72
2023/12/07 14:43:12;;;;;;;25.08;16.17;;;3.10;99.90;;;;;;4937443;29;20213;-71
2023/12/07 14:45:39;;;;;;;23.85;12.32;;;3.10;99.90;;;;;;4941889;29;20217;-71
2023/12/07 14:48:06;;;;;;;19.92;10.48;;;3.10;99.90;;;;;;4929819;29;20793;-71
2023/12/07 14:50:34;;;;;;;25.13;13.55;;;3.10;99.90;;;;;;4934649;29;20225;-71
2023/12/07 14:53:01;;;;;;;12.30;9.00;;;3.10;99.90;;;;;;4936627;29;20216;-71
2023/12/07 14:55:27;;;;;;;18.25;10.55;;;3.00;99.90;;;;;;4931333;29;20648;-71
2023/12/07 14:57:54;;;;;;;16.60;9.57;;;3.00;99.90;;;;;;4933081;29;20214;-71
2023/12/07 15:00:21;;;;;;;21.70;11.25;;;3.00;99.90;;;;;;4939829;29;20233;-71
2023/12/07 15:02:47;;;;;;;21.17;11.48;;;3.00;99.90;;;;;;4930538;29;20222;-71
2023/12/07 15:05:14;;;;;;;24.83;12.25;;;3.00;99.90;;;;;;4934158;29;20218;-71
2023/12/07 15:07:42;;;;;;;22.13;13.52;;;3.00;99.90;;;;;;4934213;29;20210;-71
2023/12/07 15:10:09;;;;;;;22.65;11.77;;;3.00;99.90;;;;;;4922481;29;20257;-71
2023/12/07 15:12:35;;;;;;;16.77;10.05;;;3.00;99.90;;;;;;4939375;29;20230;-70
2023/12/07 15:15:05;;;;;;;24.52;11.95;;;3.00;99.90;;;;;;4947849;29;20219;-71
2023/12/07 15:17:32;;;;;;;19.83;12.20;;;2.90;99.90;;;;;;4939493;29;20207;-71
2023/12/07 15:19:59;;;;;;;25.85;14.13;;;2.90;99.90;;;;;;4933428;29;20226;-71
2023/12/07 15:22:25;;;;;;;25.10;16.30;;;3.00;99.90;;;;;;4937499;29;20232;-71
2023/12/07 15:24:53;;;;;;;23.80;13.88;;;2.90;99.90;;;;;;4934700;29;20591;-71
2023/12/07 15:27:20;;;;;;;24.33;12.43;;;3.00;99.90;;;;;;4934157;29;20213;-71
2023/12/07 15:29:47;;;;;;;19.85;15.75;;;2.90;99.90;;;;;;4927121;29;20199;-71
2023/12/07 15:32:13;;;;;;;27.75;14.70;;;3.00;99.90;;;;;;4945758;29;20221;-71
2023/12/07 15:34:40;;;;;;;22.35;11.52;;;3.00;99.90;;;;;;4941117;29;20229;-72
2023/12/07 15:37:07;;;;;;;16.92;10.68;;;3.00;99.90;;;;;;4924183;29;20210;-72
2023/12/07 15:39:34;;;;;;;17.02;8.30;;;2.90;99.90;;;;;;4934801;29;20249;-71
2023/12/07 15:42:02;;;;;;;25.48;13.27;;;2.90;99.90;;;;;;4946507;28;20585;-71
2023/12/07 15:44:28;;;;;;;20.70;11.10;;;2.90;99.90;;;;;;4934109;29;20233;-71
2023/12/07 15:46:55;;;;;;;26.30;15.18;;;2.90;99.90;;;;;;4932785;29;20212;-72
2023/12/07 15:49:22;;;;;;;25.55;15.25;;;2.90;99.90;;;;;;4933696;29;20668;-72
2023/12/07 15:51:48;;;;;;;25.77;15.85;;;2.90;99.90;;;;;;4935529;29;20226;-72
2023/12/07 15:54:15;;;;;;;23.25;14.80;;;2.90;99.90;;;;;;4937909;29;20233;-71
2023/12/07 15:56:42;;;;;;;24.27;17.20;;;2.90;99.90;;;;;;4934386;29;20218;-71
2023/12/07 15:59:10;;;;;;;31.35;17.65;;;2.90;99.90;;;;;;4933156;29;20600;-71
2023/12/07 16:01:36;;;;;;;20.20;11.93;;;2.90;99.90;;;;;;4933507;29;20242;-71
2023/12/07 16:04:03;;;;;;;29.85;15.77;;;2.90;99.90;;;;;;4936048;29;20202;-72
2023/12/07 16:06:30;;;;;;;20.52;14.23;;;2.90;99.90;;;;;;4934037;29;20658;-73
2023/12/07 16:08:57;;;;;;;27.73;17.17;;;2.90;99.90;;;;;;4933345;29;20240;-73
2023/12/07 16:11:24;;;;;;;24.10;15.07;;;2.90;99.90;;;;;;4928890;29;20227;-72
2023/12/07 16:13:50;;;;;;;25.52;12.20;;;2.90;99.90;;;;;;4936049;29;20216;-73
2023/12/07 16:16:18;;;;;;;16.92;11.57;;;2.90;99.90;;;;;;4933728;29;20288;-73
2023/12/07 16:18:46;;;;;;;25.65;15.00;;;2.90;99.90;;;;;;4933102;29;20210;-72
2023/12/07 16:21:14;;;;;;;21.70;13.15;;;2.90;99.90;;;;;;4933252;29;20234;-73
2023/12/07 16:23:41;;;;;;;20.73;12.70;;;2.90;99.90;;;;;;4936513;29;20352;-72
2023/12/07 16:26:08;;;;;;;25.17;13.45;;;2.90;99.90;;;;;;4945205;29;20201;-72
2023/12/07 16:28:34;;;;;;;28.02;13.18;;;2.90;99.90;;;;;;4952089;29;20217;-72
2023/12/07 16:31:01;;;;;;;23.80;14.98;;;2.90;99.90;;;;;;4937105;29;20333;-72
2023/12/07 16:33:29;;;;;;;24.33;14.38;;;2.90;99.90;;;;;;4939592;29;20209;-72
2023/12/07 16:35:56;;;;;;;21.75;12.60;;;2.90;99.90;;;;;;4938427;29;20218;-72
2023/12/07 16:38:22;;;;;;;20.98;13.30;;;2.90;99.90;;;;;;4931820;29;20554;-72
2023/12/07 16:40:49;;;;;;;19.33;13.75;;;2.90;99.90;;;;;;4922645;29;20233;-72
2023/12/07 16:43:16;;;;;;;26.60;12.52;;;2.90;99.90;;;;;;4932167;29;20206;-72
2023/12/07 16:45:46;;;;;;;21.52;11.65;;;2.90;99.90;;;;;;4936524;29;20669;-72
2023/12/07 16:48:13;;;;;;;35.47;20.45;;;2.90;99.90;;;;;;4932521;29;20661;-73
2023/12/07 16:50:42;;;;;;;24.20;12.90;;;2.90;99.90;;;;;;4932703;29;20881;-73
2023/12/07 16:53:09;;;;;;;22.40;13.63;;;2.90;99.90;;;;;;4933171;29;20368;-73
2023/12/07 16:55:35;;;;;;;27.83;16.33;;;2.90;99.90;;;;;;4932762;29;20214;-73
2023/12/07 16:58:02;;;;;;;26.83;13.07;;;2.90;99.90;;;;;;4932740;29;20217;-73
2023/12/07 17:00:28;;;;;;;24.75;12.52;;;2.90;99.90;;;;;;4932132;29;20234;-73
2023/12/07 17:02:55;;;;;;;23.38;12.23;;;2.90;99.90;;;;;;4932515;29;20199;-73
2023/12/07 17:05:22;;;;;;;20.70;11.15;;;2.80;99.90;;;;;;4939511;29;20217;-73
2023/12/07 17:07:50;;;;;;;23.58;14.93;;;2.80;99.90;;;;;;4933404;29;20555;-73
2023/12/07 17:10:16;;;;;;;10.73;6.95;;;2.80;99.90;;;;;;4932449;29;20212;-72
2023/12/07 17:12:44;;;;;;;23.08;11.65;;;2.80;99.90;;;;;;4935175;29;20212;-72
2023/12/07 17:15:12;;;;;;;24.40;13.07;;;2.80;99.90;;;;;;4932659;29;20249;-72
2023/12/07 17:17:39;;;;;;;22.40;11.50;;;2.80;99.90;;;;;;4932050;29;20217;-71
2023/12/07 17:20:07;;;;;;;22.15;11.23;;;2.70;99.90;;;;;;4931850;29;20716;-72
2023/12/07 17:22:34;;;;;;;23.02;12.82;;;2.80;99.90;;;;;;4931923;29;20793;-73
2023/12/07 17:25:03;;;;;;;26.70;14.25;;;2.70;99.90;;;;;;4930723;29;20209;-74
2023/12/07 17:27:30;;;;;;;30.02;15.20;;;2.80;99.90;;;;;;4923303;29;20211;-74
2023/12/07 17:29:57;;;;;;;23.15;13.80;;;2.70;99.90;;;;;;4927290;29;20410;-74
2023/12/07 17:32:24;;;;;;;24.20;12.60;;;2.70;99.90;;;;;;4928271;29;20226;-74
2023/12/07 17:34:51;;;;;;;11.40;8.05;;;2.80;99.90;;;;;;4926601;29;20921;-74
2023/12/07 17:37:19;;;;;;;28.00;15.82;;;2.80;99.90;;;;;;4931519;29;20229;-74